createdAt,value
2022-10-20T00:01:02.556Z,14.75
2022-10-20T00:03:29.511Z,14.75
2022-10-20T00:06:06.467Z,14.68
2022-10-20T00:08:33.204Z,14.71
2022-10-20T00:11:00.088Z,14.68
2022-10-20T00:13:27.049Z,14.70
2022-10-20T00:15:55.242Z,14.72
2022-10-20T00:18:22.827Z,14.74
2022-10-20T00:20:49.950Z,14.69
2022-10-20T00:23:16.671Z,14.70
2022-10-20T00:25:43.499Z,14.64
2022-10-20T00:28:10.467Z,14.68
2022-10-20T00:30:37.616Z,14.68
2022-10-20T00:33:04.784Z,14.67
2022-10-20T00:35:31.963Z,14.73
2022-10-20T00:37:59.852Z,14.71
2022-10-20T00:40:26.538Z,14.71
2022-10-20T00:42:53.394Z,14.68
2022-10-20T00:45:21.170Z,14.62
2022-10-20T00:47:49.465Z,14.61
2022-10-20T00:50:18.075Z,14.59
2022-10-20T00:52:46.093Z,14.56
2022-10-20T00:55:14.618Z,14.57
2022-10-20T00:57:42.865Z,14.58
2022-10-20T01:00:10.122Z,14.57
2022-10-20T01:02:37.036Z,14.61
2022-10-20T01:05:04.244Z,14.60
2022-10-20T01:07:35.136Z,14.66
2022-10-20T01:10:03.679Z,14.57
2022-10-20T01:12:30.346Z,14.54
2022-10-20T01:15:07.851Z,14.46
2022-10-20T01:17:43.706Z,14.52
2022-10-20T01:20:13.858Z,14.49
2022-10-20T01:22:58.893Z,14.52
2022-10-20T01:25:44.499Z,14.54
2022-10-20T01:28:29.029Z,14.52
2022-10-20T01:31:00.238Z,14.44
2022-10-20T01:33:30.015Z,14.42
2022-10-20T01:36:04.278Z,14.41
2022-10-20T01:38:43.014Z,14.37
2022-10-20T01:41:17.410Z,14.29
2022-10-20T01:43:46.254Z,14.19
2022-10-20T01:46:14.699Z,14.19
2022-10-20T01:48:41.934Z,14.14
2022-10-20T01:51:09.891Z,14.08
2022-10-20T01:53:36.657Z,14.02
2022-10-20T01:56:04.121Z,13.97
2022-10-20T01:58:39.948Z,13.86
2022-10-20T02:01:30.106Z,13.85
2022-10-20T02:03:59.515Z,13.80
2022-10-20T02:06:55.805Z,13.79
2022-10-20T02:09:27.459Z,13.75
2022-10-20T02:11:54.149Z,13.73
2022-10-20T02:14:21.745Z,13.72
2022-10-20T02:16:55.505Z,13.63
2022-10-20T02:19:24.911Z,13.59
2022-10-20T02:21:52.534Z,13.48
2022-10-20T02:24:22.113Z,13.48
2022-10-20T02:26:49.700Z,13.35
2022-10-20T02:29:18.362Z,13.37
2022-10-20T02:31:45.355Z,13.31
2022-10-20T02:34:12.350Z,13.21
2022-10-20T02:36:40.803Z,13.16
2022-10-20T02:39:08.069Z,13.16
2022-10-20T02:41:34.900Z,13.16
2022-10-20T02:44:01.667Z,13.15
2022-10-20T02:46:28.843Z,13.08
2022-10-20T02:48:55.620Z,13.04
2022-10-20T02:51:22.513Z,13.03
2022-10-20T02:53:49.973Z,13.04
2022-10-20T02:56:16.862Z,13.03
2022-10-20T02:58:43.646Z,12.98
2022-10-20T03:01:10.633Z,12.94
2022-10-20T03:03:37.301Z,12.93
2022-10-20T03:06:11.635Z,12.88
2022-10-20T03:08:38.958Z,12.87
2022-10-20T03:11:05.785Z,12.77
2022-10-20T03:13:32.908Z,12.68
2022-10-20T03:15:59.926Z,12.68
2022-10-20T03:18:26.626Z,12.69
2022-10-20T03:20:54.061Z,12.64
2022-10-20T03:23:20.971Z,12.61
2022-10-20T03:25:47.927Z,12.62
2022-10-20T03:28:14.669Z,12.58
2022-10-20T03:30:41.415Z,12.55
2022-10-20T03:33:08.134Z,12.55
2022-10-20T03:35:35.097Z,12.58
2022-10-20T03:38:01.765Z,12.55
2022-10-20T03:40:28.522Z,12.50
2022-10-20T03:42:55.237Z,12.54
2022-10-20T03:45:21.994Z,12.56
2022-10-20T03:47:48.818Z,12.54
2022-10-20T03:50:15.758Z,12.56
2022-10-20T03:52:42.458Z,12.55
2022-10-20T03:55:09.634Z,12.56
2022-10-20T03:57:36.773Z,12.58
2022-10-20T04:00:03.877Z,12.57
2022-10-20T04:02:39.694Z,12.55
2022-10-20T04:05:06.860Z,12.50
2022-10-20T04:07:33.526Z,12.50
2022-10-20T04:10:02.407Z,12.46
2022-10-20T04:12:29.620Z,12.44
2022-10-20T04:14:56.412Z,12.40
2022-10-20T04:17:23.547Z,12.38
2022-10-20T04:19:50.438Z,12.34
2022-10-20T04:22:17.132Z,12.24
2022-10-20T04:24:44.090Z,12.22
2022-10-20T04:27:10.810Z,12.24
2022-10-20T04:29:37.666Z,12.19
2022-10-20T04:32:04.850Z,12.20
2022-10-20T04:34:31.890Z,12.20
2022-10-20T04:36:58.666Z,12.20
2022-10-20T04:39:25.753Z,12.20
2022-10-20T04:41:52.463Z,12.21
2022-10-20T04:44:19.263Z,12.14
2022-10-20T04:46:45.978Z,12.15
2022-10-20T04:49:12.939Z,12.19
2022-10-20T04:51:39.782Z,12.18
2022-10-20T04:54:06.635Z,12.17
2022-10-20T04:56:33.347Z,12.17
2022-10-20T04:59:00.109Z,12.18
2022-10-20T05:01:27.856Z,12.17
2022-10-20T05:03:54.754Z,12.16
2022-10-20T05:06:25.910Z,12.17
2022-10-20T05:08:53.490Z,12.18
2022-10-20T05:11:20.923Z,12.17
2022-10-20T05:13:48.207Z,12.13
2022-10-20T05:16:17.368Z,12.14
2022-10-20T05:18:44.514Z,12.10
2022-10-20T05:21:12.731Z,12.08
2022-10-20T05:23:40.062Z,12.10
2022-10-20T05:26:09.203Z,12.14
2022-10-20T05:28:36.050Z,12.15
2022-10-20T05:31:03.753Z,12.17
2022-10-20T05:33:30.638Z,12.17
2022-10-20T05:35:57.668Z,12.19
2022-10-20T05:38:24.588Z,12.22
2022-10-20T05:40:51.570Z,12.27
2022-10-20T05:43:18.287Z,12.26
2022-10-20T05:45:45.017Z,12.28
2022-10-20T05:48:11.763Z,12.28
2022-10-20T05:50:38.674Z,12.27
2022-10-20T05:53:05.472Z,12.27
2022-10-20T05:55:33.034Z,12.30
2022-10-20T05:58:00.000Z,12.29
2022-10-20T06:00:31.050Z,12.28
2022-10-20T06:02:58.256Z,12.29
2022-10-20T06:05:25.012Z,12.29
2022-10-20T06:07:53.149Z,12.27
2022-10-20T06:10:19.999Z,12.24
2022-10-20T06:12:47.682Z,12.22
2022-10-20T06:15:14.390Z,12.27
2022-10-20T06:17:41.132Z,12.30
2022-10-20T06:20:07.975Z,12.33
2022-10-20T06:22:35.300Z,12.36
2022-10-20T06:25:02.200Z,12.38
2022-10-20T06:27:29.230Z,12.36
2022-10-20T06:29:55.969Z,12.41
2022-10-20T06:32:22.659Z,12.43
2022-10-20T06:34:49.375Z,12.46
2022-10-20T06:37:16.169Z,12.48
2022-10-20T06:39:42.975Z,12.48
2022-10-20T06:42:12.012Z,12.45
2022-10-20T06:44:45.016Z,12.51
2022-10-20T06:47:11.937Z,12.53
2022-10-20T06:49:38.693Z,12.53
2022-10-20T06:52:05.470Z,12.58
2022-10-20T06:54:32.509Z,12.57
2022-10-20T06:56:59.203Z,12.61
2022-10-20T06:59:25.951Z,12.64
2022-10-20T07:01:53.072Z,12.71
2022-10-20T07:04:20.121Z,12.78
2022-10-20T07:06:47.326Z,12.79
2022-10-20T07:09:16.151Z,12.83
2022-10-20T07:11:43.635Z,12.83
2022-10-20T07:14:11.758Z,12.86
2022-10-20T07:16:38.727Z,12.92
2022-10-20T07:19:05.504Z,12.91
2022-10-20T07:21:35.977Z,12.97
2022-10-20T07:24:06.462Z,13.01
2022-10-20T07:26:34.666Z,13.10
2022-10-20T07:29:02.943Z,13.16
2022-10-20T07:31:34.907Z,13.20
2022-10-20T07:34:13.605Z,13.21
2022-10-20T07:36:49.983Z,13.27
2022-10-20T07:39:16.929Z,13.37
2022-10-20T07:41:47.192Z,13.40
2022-10-20T07:44:14.611Z,13.48
2022-10-20T07:46:41.728Z,13.51
2022-10-20T07:49:42.338Z,13.55
2022-10-20T07:51:55.678Z,13.56
2022-10-20T07:54:22.534Z,13.59
2022-10-20T07:56:49.636Z,13.64
2022-10-20T07:59:16.424Z,13.67
2022-10-20T08:01:44.032Z,13.69
2022-10-20T08:04:11.219Z,13.67
2022-10-20T08:06:39.065Z,13.68
2022-10-20T08:09:06.423Z,13.72
2022-10-20T08:11:33.490Z,13.76
2022-10-20T08:14:00.180Z,13.76
2022-10-20T08:16:35.890Z,13.81
2022-10-20T08:21:43.458Z,13.89
2022-10-20T08:24:10.584Z,13.99
2022-10-20T08:26:37.338Z,14.04
2022-10-20T08:29:04.306Z,14.03
2022-10-20T08:31:30.979Z,14.10
2022-10-20T08:33:58.082Z,14.17
2022-10-20T08:36:25.086Z,14.22
2022-10-20T08:38:51.850Z,14.23
2022-10-20T08:41:20.718Z,14.27
2022-10-20T08:43:48.945Z,14.28
2022-10-20T08:48:44.454Z,14.35
2022-10-20T08:51:25.071Z,14.41
2022-10-20T08:53:53.860Z,14.45
2022-10-20T08:56:22.910Z,14.50
2022-10-20T08:58:49.708Z,14.56
2022-10-20T09:01:24.237Z,14.60
2022-10-20T09:04:03.901Z,14.62
2022-10-20T09:06:31.213Z,14.67
2022-10-20T09:09:10.710Z,14.74
2022-10-20T09:11:40.486Z,14.80
2022-10-20T09:14:09.271Z,14.82
2022-10-20T09:16:55.337Z,14.82
2022-10-20T09:19:45.849Z,14.88
2022-10-20T09:22:13.536Z,14.98
2022-10-20T09:24:42.824Z,15.03
2022-10-20T09:27:20.479Z,15.09
2022-10-20T09:29:48.556Z,15.17
2022-10-20T09:35:22.065Z,15.31
2022-10-20T09:37:57.852Z,15.36
2022-10-20T09:40:26.572Z,15.44
2022-10-20T09:42:55.732Z,15.46
2022-10-20T09:45:24.280Z,15.51
2022-10-20T09:47:53.831Z,15.57
2022-10-20T09:50:26.910Z,15.57
2022-10-20T09:52:54.015Z,15.58
2022-10-20T09:55:20.994Z,15.63
2022-10-20T09:57:47.971Z,15.64
2022-10-20T10:00:37.125Z,15.61
2022-10-20T10:03:10.212Z,15.70
2022-10-20T10:05:37.031Z,15.69
2022-10-20T10:08:03.784Z,15.73
2022-10-20T10:10:31.664Z,15.74
2022-10-20T10:13:03.940Z,15.78
2022-10-20T10:15:36.729Z,15.81
2022-10-20T10:18:14.643Z,15.84
2022-10-20T10:20:42.235Z,15.91
2022-10-20T10:23:28.579Z,15.90
2022-10-20T10:25:59.271Z,15.98
2022-10-20T10:28:37.806Z,15.99
2022-10-20T10:31:09.472Z,15.98
2022-10-20T10:33:36.386Z,16.00
2022-10-20T10:36:04.793Z,15.96
2022-10-20T10:38:31.529Z,16.02
2022-10-20T10:41:04.738Z,16.07
2022-10-20T10:43:46.253Z,16.07
2022-10-20T10:46:19.356Z,16.09
2022-10-20T10:48:58.521Z,16.10
2022-10-20T10:51:39.856Z,16.16
2022-10-20T10:54:11.622Z,16.18
2022-10-20T10:56:44.756Z,16.25
2022-10-20T10:59:18.183Z,16.27
2022-10-20T11:01:45.277Z,16.27
2022-10-20T11:04:18.104Z,16.30
2022-10-20T11:06:48.186Z,16.29
2022-10-20T11:09:15.991Z,16.33
2022-10-20T11:12:12.671Z,16.43
2022-10-20T11:15:05.096Z,16.49
2022-10-20T11:18:01.150Z,16.47
2022-10-20T11:20:41.360Z,16.41
2022-10-20T11:23:08.254Z,16.39
2022-10-20T11:25:47.375Z,16.40
2022-10-20T11:28:33.107Z,16.35
2022-10-20T11:31:00.498Z,16.40
2022-10-20T11:33:30.752Z,16.32
2022-10-20T11:36:09.202Z,16.25
2022-10-20T11:38:37.249Z,16.29
2022-10-20T11:41:17.358Z,16.28
2022-10-20T11:43:50.523Z,16.28
2022-10-20T11:46:32.768Z,16.27
2022-10-20T11:49:01.837Z,16.31
2022-10-20T11:51:31.048Z,16.29
2022-10-20T11:54:16.888Z,16.20
2022-10-20T11:57:02.896Z,16.25
2022-10-20T11:59:52.216Z,16.23
2022-10-20T12:02:22.163Z,16.28
2022-10-20T12:05:00.005Z,16.36
2022-10-20T12:07:30.410Z,16.37
2022-10-20T12:10:12.387Z,16.36
2022-10-20T12:12:51.308Z,16.44
2022-10-20T12:15:20.972Z,16.51
2022-10-20T12:17:48.410Z,16.53
2022-10-20T12:20:21.715Z,16.55
2022-10-20T12:22:49.999Z,16.61
2022-10-20T12:25:24.259Z,16.61
2022-10-20T12:28:14.398Z,16.59
2022-10-20T12:30:43.967Z,16.55
2022-10-20T12:33:33.912Z,16.58
2022-10-20T12:39:10.534Z,16.65
2022-10-20T12:41:41.910Z,16.67
2022-10-20T12:44:17.349Z,16.66
2022-10-20T12:46:52.756Z,16.68
2022-10-20T12:49:23.859Z,16.72
2022-10-20T12:51:51.976Z,16.69
2022-10-20T12:54:19.011Z,16.68
2022-10-20T12:56:46.178Z,16.69
2022-10-20T12:59:24.034Z,16.70
2022-10-20T13:02:09.617Z,16.72
2022-10-20T13:04:56.257Z,16.77
2022-10-20T13:07:42.062Z,16.80
2022-10-20T13:10:29.858Z,16.83
2022-10-20T13:13:06.146Z,16.88
2022-10-20T13:15:33.399Z,16.85
2022-10-20T13:18:03.305Z,16.88
2022-10-20T13:20:30.749Z,16.83
2022-10-20T13:22:57.789Z,16.82
2022-10-20T13:25:37.085Z,16.83
2022-10-20T13:28:14.668Z,16.84
2022-10-20T13:31:00.043Z,16.77
2022-10-20T13:34:03.153Z,16.83
2022-10-20T13:36:34.401Z,16.85
2022-10-20T13:39:15.379Z,16.81
2022-10-20T13:42:01.148Z,16.84
2022-10-20T13:44:51.820Z,16.80
2022-10-20T13:47:34.102Z,16.84
2022-10-20T13:50:06.226Z,16.81
2022-10-20T13:52:35.637Z,16.82
2022-10-20T13:55:05.183Z,16.78
2022-10-20T13:57:33.716Z,16.81
2022-10-20T14:00:04.580Z,16.81
2022-10-20T14:02:35.157Z,16.76
2022-10-20T14:05:04.358Z,16.73
2022-10-20T14:07:41.652Z,16.74
2022-10-20T14:10:26.421Z,16.74
2022-10-20T14:12:53.993Z,16.70
2022-10-20T14:15:31.871Z,16.72
2022-10-20T14:18:04.097Z,16.70
2022-10-20T14:20:31.870Z,16.73
2022-10-20T14:23:00.719Z,16.67
2022-10-20T14:25:28.056Z,16.69
2022-10-20T14:27:55.918Z,16.60
2022-10-20T14:30:24.100Z,16.64
2022-10-20T14:32:51.425Z,16.58
2022-10-20T14:35:26.269Z,16.63
2022-10-20T14:37:59.013Z,16.55
2022-10-20T14:40:28.852Z,16.54
2022-10-20T14:42:57.652Z,16.55
2022-10-20T14:45:25.807Z,16.53
2022-10-20T14:47:53.289Z,16.45
2022-10-20T14:50:22.873Z,16.38
2022-10-20T14:52:53.849Z,16.33
2022-10-20T14:55:31.463Z,16.31
2022-10-20T14:57:58.379Z,16.31
2022-10-20T15:00:32.206Z,16.32
2022-10-20T15:03:03.126Z,16.24
2022-10-20T15:05:37.272Z,16.19
2022-10-20T15:08:16.340Z,16.12
2022-10-20T15:10:43.582Z,16.13
2022-10-20T15:13:23.616Z,16.09
2022-10-20T15:15:53.831Z,16.03
2022-10-20T15:18:21.075Z,15.99
2022-10-20T15:20:48.399Z,15.99
2022-10-20T15:23:17.219Z,15.83
2022-10-20T15:26:03.156Z,15.85
2022-10-20T15:28:31.828Z,15.82
2022-10-20T15:30:59.389Z,15.78
2022-10-20T15:33:26.874Z,15.73
2022-10-20T15:35:54.063Z,15.72
2022-10-20T15:38:20.970Z,15.67
2022-10-20T15:40:48.072Z,15.67
2022-10-20T15:43:17.578Z,15.67
2022-10-20T15:45:47.683Z,15.54
2022-10-20T15:48:14.876Z,15.51
2022-10-20T15:50:41.778Z,15.42
2022-10-20T15:53:10.626Z,15.40
2022-10-20T15:55:39.361Z,15.35
2022-10-20T15:58:06.406Z,15.29
2022-10-20T16:00:33.520Z,15.18
2022-10-20T16:03:00.438Z,15.15
2022-10-20T16:05:27.382Z,15.14
2022-10-20T16:07:54.887Z,15.16
2022-10-20T16:10:22.615Z,15.11
2022-10-20T16:12:49.660Z,14.94
2022-10-20T16:15:17.063Z,14.89
2022-10-20T16:17:45.355Z,14.86
2022-10-20T16:20:12.142Z,14.81
2022-10-20T16:22:39.359Z,14.82
2022-10-20T16:25:06.455Z,14.77
2022-10-20T16:27:33.899Z,14.76
2022-10-20T16:30:01.041Z,14.73
2022-10-20T16:32:32.982Z,14.69
2022-10-20T16:35:03.521Z,14.67
2022-10-20T16:37:30.964Z,14.60
2022-10-20T16:39:59.882Z,14.53
2022-10-20T16:42:28.572Z,14.41
2022-10-20T16:44:55.543Z,14.30
2022-10-20T16:47:22.662Z,14.32
2022-10-20T16:49:49.516Z,14.28
2022-10-20T16:52:16.347Z,14.27
2022-10-20T16:54:43.090Z,14.24
2022-10-20T16:57:11.736Z,14.22
2022-10-20T16:59:38.883Z,14.19
2022-10-20T17:02:06.590Z,14.17
2022-10-20T17:04:33.852Z,14.14
2022-10-20T17:07:00.647Z,14.08
2022-10-20T17:09:30.603Z,14.08
2022-10-20T17:11:58.490Z,14.05
2022-10-20T17:14:25.398Z,14.02
2022-10-20T17:16:52.162Z,13.81
2022-10-20T17:19:19.227Z,13.97
2022-10-20T17:21:46.005Z,13.94
2022-10-20T17:24:13.367Z,13.88
2022-10-20T17:26:40.740Z,13.84
2022-10-20T17:29:09.721Z,13.77
2022-10-20T17:31:37.949Z,13.78
2022-10-20T17:34:05.163Z,13.75
2022-10-20T17:36:32.590Z,13.74
2022-10-20T17:39:08.776Z,13.70
2022-10-20T17:41:36.038Z,13.71
2022-10-20T17:44:04.599Z,13.71
2022-10-20T17:46:31.956Z,13.69
2022-10-20T17:48:59.341Z,13.64
2022-10-20T17:51:28.975Z,13.60
2022-10-20T17:53:58.818Z,13.56
2022-10-20T17:56:31.570Z,13.55
2022-10-20T17:58:59.367Z,13.51
2022-10-20T18:01:27.829Z,13.51
2022-10-20T18:03:56.224Z,13.45
2022-10-20T18:06:25.650Z,13.41
2022-10-20T18:08:53.775Z,13.38
2022-10-20T18:11:22.052Z,13.36
2022-10-20T18:13:48.830Z,13.37
2022-10-20T18:16:16.619Z,13.31
2022-10-20T18:18:43.741Z,13.29
2022-10-20T18:21:11.914Z,13.22
2022-10-20T18:23:41.209Z,13.21
2022-10-20T18:26:18.719Z,13.17
2022-10-20T18:28:48.371Z,13.16
2022-10-20T18:31:18.139Z,13.15
2022-10-20T18:33:46.095Z,13.09
2022-10-20T18:36:13.976Z,13.10
2022-10-20T18:38:41.778Z,13.08
2022-10-20T18:41:12.135Z,13.06
2022-10-20T18:43:39.191Z,13.04
2022-10-20T18:46:07.198Z,12.99
2022-10-20T18:48:37.009Z,12.98
2022-10-20T18:51:04.963Z,12.95
2022-10-20T18:53:32.174Z,12.92
2022-10-20T18:56:07.851Z,12.86
2022-10-20T18:58:38.143Z,12.80
2022-10-20T19:01:05.234Z,12.78
2022-10-20T19:03:33.333Z,12.75
2022-10-20T19:06:03.157Z,12.73
2022-10-20T19:08:30.538Z,12.72
2022-10-20T19:10:57.805Z,12.70
2022-10-20T19:13:25.492Z,12.67
2022-10-20T19:15:52.680Z,12.65
2022-10-20T19:18:20.096Z,12.61
2022-10-20T19:21:02.198Z,12.58
2022-10-20T19:23:32.340Z,12.51
2022-10-20T19:26:05.415Z,12.50
2022-10-20T19:28:33.590Z,12.47
2022-10-20T19:31:00.442Z,12.45
2022-10-20T19:33:27.579Z,12.43
2022-10-20T19:35:54.514Z,12.40
2022-10-20T19:38:21.268Z,12.39
2022-10-20T19:40:48.110Z,12.32
2022-10-20T19:43:14.990Z,12.27
2022-10-20T19:45:45.296Z,12.22
2022-10-20T19:48:14.584Z,12.19
2022-10-20T19:50:41.308Z,12.19
2022-10-20T19:53:08.176Z,12.15
2022-10-20T19:55:36.708Z,12.09
2022-10-20T19:58:04.058Z,12.07
2022-10-20T20:00:30.842Z,12.06
2022-10-20T20:02:57.759Z,12.05
2022-10-20T20:05:24.545Z,12.04
2022-10-20T20:07:51.292Z,12.01
2022-10-20T20:10:18.071Z,11.99
2022-10-20T20:12:45.170Z,11.99
2022-10-20T20:15:12.059Z,11.94
2022-10-20T20:17:39.265Z,11.92
2022-10-20T20:20:07.003Z,11.90
2022-10-20T20:22:33.764Z,11.87
2022-10-20T20:25:00.583Z,11.86
2022-10-20T20:27:27.428Z,11.82
2022-10-20T20:29:54.382Z,11.79
2022-10-20T20:32:21.215Z,11.75
2022-10-20T20:34:48.347Z,11.72
2022-10-20T20:37:15.157Z,11.69
2022-10-20T20:39:41.961Z,11.68
2022-10-20T20:42:09.027Z,11.64
2022-10-20T20:44:35.828Z,11.60
2022-10-20T20:47:02.768Z,11.58
2022-10-20T20:49:29.824Z,11.54
2022-10-20T20:51:56.624Z,11.54
2022-10-20T20:54:23.440Z,11.47
2022-10-20T20:56:50.507Z,11.47
2022-10-20T20:59:17.233Z,11.44
2022-10-20T21:01:45.171Z,11.43
2022-10-20T21:04:12.913Z,11.44
2022-10-20T21:07:00.781Z,11.42
2022-10-20T21:09:27.415Z,11.37
2022-10-20T21:11:54.215Z,11.38
2022-10-20T21:14:21.202Z,11.33
2022-10-20T21:16:48.282Z,11.31
2022-10-20T21:19:15.385Z,11.30
2022-10-20T21:21:44.393Z,11.30
2022-10-20T21:24:12.644Z,11.27
2022-10-20T21:26:39.802Z,11.23
2022-10-20T21:29:06.729Z,11.18
2022-10-20T21:31:33.622Z,11.14
2022-10-20T21:34:01.907Z,11.10
2022-10-20T21:36:29.362Z,11.05
2022-10-20T21:38:56.180Z,11.03
2022-10-20T21:41:24.388Z,11.00
2022-10-20T21:43:52.215Z,10.95
2022-10-20T21:46:29.600Z,10.89
2022-10-20T21:49:01.289Z,10.81
2022-10-20T21:51:29.965Z,10.80
2022-10-20T21:53:57.535Z,10.77
2022-10-20T21:56:24.864Z,10.74
2022-10-20T21:58:52.232Z,10.68
2022-10-20T22:01:20.345Z,10.64
2022-10-20T22:03:47.981Z,10.64
2022-10-20T22:06:16.683Z,10.58
2022-10-20T22:08:45.413Z,10.55
2022-10-20T22:11:20.012Z,10.55
2022-10-20T22:13:47.705Z,10.45
2022-10-20T22:16:16.184Z,10.41
2022-10-20T22:18:43.290Z,10.37
2022-10-20T22:21:13.900Z,10.35
2022-10-20T22:23:41.404Z,10.30
2022-10-20T22:26:08.856Z,10.22
2022-10-20T22:28:35.599Z,10.19
2022-10-20T22:31:02.422Z,10.16
2022-10-20T22:33:29.429Z,10.12
2022-10-20T22:35:56.219Z,10.12
2022-10-20T22:38:23.143Z,10.05
2022-10-20T22:40:50.088Z,10.02
2022-10-20T22:43:16.896Z,9.97
2022-10-20T22:45:43.887Z,9.90
2022-10-20T22:48:10.596Z,9.87
2022-10-20T22:50:37.471Z,9.85
2022-10-20T22:53:04.211Z,9.83
2022-10-20T22:55:31.063Z,9.83
2022-10-20T23:00:25.771Z,9.76
2022-10-20T23:02:52.630Z,9.77
2022-10-20T23:05:19.575Z,9.74
2022-10-20T23:07:46.319Z,9.73
2022-10-20T23:10:13.313Z,9.68
2022-10-20T23:12:40.263Z,9.65
2022-10-20T23:15:07.511Z,9.61
2022-10-20T23:17:34.901Z,9.57
2022-10-20T23:20:02.016Z,9.55
2022-10-20T23:22:29.651Z,9.52
2022-10-20T23:24:56.511Z,9.51
2022-10-20T23:27:23.536Z,9.46
2022-10-20T23:29:50.272Z,9.47
2022-10-20T23:32:17.277Z,9.49
2022-10-20T23:34:44.019Z,9.49
2022-10-20T23:37:11.291Z,9.46
2022-10-20T23:39:38.075Z,9.45
2022-10-20T23:42:07.308Z,9.41
2022-10-20T23:44:34.391Z,9.38
2022-10-20T23:47:01.487Z,9.35
2022-10-20T23:49:28.314Z,9.32
2022-10-20T23:51:55.266Z,9.29
2022-10-20T23:54:22.370Z,9.25
2022-10-20T23:56:49.111Z,9.23
2022-10-20T23:59:16.018Z,9.22
